createdAt,value
2022-09-26T00:01:06.975Z,7.36
2022-09-26T00:02:11.394Z,7.37
2022-09-26T00:03:13.215Z,7.37
2022-09-26T00:04:22.963Z,7.36
2022-09-26T00:05:24.965Z,7.35
2022-09-26T00:06:30.774Z,7.33
2022-09-26T00:07:32.562Z,7.32
2022-09-26T00:08:38.615Z,7.32
2022-09-26T00:09:40.534Z,7.31
2022-09-26T00:10:45.002Z,7.31
2022-09-26T00:11:46.874Z,7.29
2022-09-26T00:12:51.311Z,7.29
2022-09-26T00:13:53.818Z,7.28
2022-09-26T00:14:58.215Z,7.27
2022-09-26T00:16:00.090Z,7.24
2022-09-26T00:17:04.574Z,7.25
2022-09-26T00:18:06.439Z,7.23
2022-09-26T00:19:11.164Z,7.23
2022-09-26T00:20:13.010Z,7.21
2022-09-26T00:21:17.506Z,7.21
2022-09-26T00:22:19.344Z,7.21
2022-09-26T00:23:23.823Z,7.20
2022-09-26T00:24:26.084Z,7.20
2022-09-26T00:25:30.510Z,7.19
2022-09-26T00:26:33.046Z,7.20
2022-09-26T00:27:37.456Z,7.20
2022-09-26T00:28:39.381Z,7.20
2022-09-26T00:29:43.814Z,7.20
2022-09-26T00:30:45.732Z,7.19
2022-09-26T00:31:50.668Z,7.18
2022-09-26T00:32:52.664Z,7.16
2022-09-26T00:33:57.232Z,7.16
2022-09-26T00:35:01.710Z,7.14
2022-09-26T00:36:03.730Z,7.14
2022-09-26T00:37:08.122Z,7.14
2022-09-26T00:38:09.949Z,7.13
2022-09-26T00:39:15.754Z,7.12
2022-09-26T00:40:18.039Z,7.11
2022-09-26T00:41:22.651Z,7.12
2022-09-26T00:42:24.706Z,7.11
2022-09-26T00:43:33.587Z,7.10
2022-09-26T00:44:42.915Z,7.12
2022-09-26T00:45:47.420Z,7.10
2022-09-26T00:46:50.759Z,7.07
2022-09-26T00:47:58.196Z,7.06
2022-09-26T00:49:06.095Z,7.05
2022-09-26T00:50:13.843Z,7.04
2022-09-26T00:51:15.645Z,7.02
2022-09-26T00:52:21.599Z,7.00
2022-09-26T00:53:25.192Z,6.97
2022-09-26T00:54:29.589Z,6.96
2022-09-26T00:55:35.172Z,6.87
2022-09-26T00:56:39.566Z,6.93
2022-09-26T00:57:43.317Z,6.90
2022-09-26T00:58:52.575Z,6.88
2022-09-26T00:59:55.717Z,6.85
2022-09-26T01:01:00.874Z,6.83
2022-09-26T01:02:04.539Z,6.81
2022-09-26T01:03:09.130Z,6.78
2022-09-26T01:04:11.031Z,6.76
2022-09-26T01:05:16.017Z,6.75
2022-09-26T01:06:18.083Z,6.73
2022-09-26T01:07:23.245Z,6.70
2022-09-26T01:08:32.593Z,6.69
2022-09-26T01:09:36.992Z,6.66
2022-09-26T01:10:41.784Z,6.64
2022-09-26T01:11:43.589Z,6.64
2022-09-26T01:12:47.955Z,6.64
2022-09-26T01:13:51.155Z,6.63
2022-09-26T01:14:55.931Z,6.62
2022-09-26T01:15:57.804Z,6.63
2022-09-26T01:17:04.101Z,6.64
2022-09-26T01:18:07.656Z,6.64
2022-09-26T01:19:15.596Z,6.64
2022-09-26T01:20:28.021Z,6.65
2022-09-26T01:21:47.379Z,6.66
2022-09-26T01:22:58.123Z,6.68
2022-09-26T01:24:16.070Z,6.69
2022-09-26T01:25:23.815Z,6.69
2022-09-26T01:26:47.128Z,6.68
2022-09-26T01:27:48.909Z,6.65
2022-09-26T01:28:56.295Z,6.63
2022-09-26T01:30:05.191Z,6.61
2022-09-26T01:31:25.636Z,6.59
2022-09-26T01:32:43.278Z,6.56
2022-09-26T01:33:53.803Z,6.52
2022-09-26T01:34:55.611Z,6.51
2022-09-26T01:36:03.203Z,6.50
2022-09-26T01:37:08.135Z,6.49
2022-09-26T01:38:15.003Z,6.47
2022-09-26T01:39:37.334Z,6.45
2022-09-26T01:40:46.409Z,6.43
2022-09-26T01:41:51.318Z,6.41
2022-09-26T01:43:14.803Z,6.41
2022-09-26T01:44:23.325Z,6.40
2022-09-26T01:45:29.151Z,6.39
2022-09-26T01:46:34.173Z,6.38
2022-09-26T01:47:45.761Z,6.37
2022-09-26T01:48:49.746Z,6.37
2022-09-26T01:50:04.282Z,6.34
2022-09-26T01:51:10.159Z,6.33
2022-09-26T01:52:22.954Z,6.32
2022-09-26T01:53:24.875Z,6.31
2022-09-26T01:54:34.875Z,6.31
2022-09-26T01:55:37.896Z,6.31
2022-09-26T01:56:42.610Z,6.31
2022-09-26T01:58:02.898Z,6.29
2022-09-26T01:59:11.175Z,6.28
2022-09-26T02:00:13.370Z,6.27
2022-09-26T02:01:21.252Z,6.23
2022-09-26T02:02:26.927Z,6.22
2022-09-26T02:03:32.375Z,6.22
2022-09-26T02:04:35.442Z,6.20
2022-09-26T02:06:09.611Z,6.18
2022-09-26T02:07:16.913Z,6.15
2022-09-26T02:08:26.723Z,6.16
2022-09-26T02:09:35.821Z,6.13
2022-09-26T02:10:42.111Z,6.11
2022-09-26T02:11:47.631Z,6.10
2022-09-26T02:12:55.911Z,6.10
2022-09-26T02:14:03.903Z,6.08
2022-09-26T02:15:12.369Z,6.08
2022-09-26T02:16:17.899Z,6.06
2022-09-26T02:17:23.918Z,6.05
2022-09-26T02:18:30.934Z,6.04
2022-09-26T02:19:38.090Z,6.04
2022-09-26T02:20:39.916Z,6.05
2022-09-26T02:21:44.397Z,6.02
2022-09-26T02:22:46.349Z,6.05
2022-09-26T02:23:53.069Z,6.05
2022-09-26T02:24:56.461Z,6.04
2022-09-26T02:26:00.895Z,6.05
2022-09-26T02:27:03.106Z,6.06
2022-09-26T02:28:07.566Z,6.05
2022-09-26T02:29:10.342Z,6.07
2022-09-26T02:30:14.983Z,6.07
2022-09-26T02:31:21.272Z,6.07
2022-09-26T02:32:30.611Z,6.07
2022-09-26T02:33:33.160Z,6.07
2022-09-26T02:34:37.897Z,6.08
2022-09-26T02:35:54.846Z,6.07
2022-09-26T02:37:01.292Z,6.07
2022-09-26T02:38:07.069Z,6.07
2022-09-26T02:39:16.727Z,6.06
2022-09-26T02:40:25.322Z,6.05
2022-09-26T02:41:29.778Z,6.04
2022-09-26T02:42:36.870Z,6.05
2022-09-26T02:43:46.423Z,6.04
2022-09-26T02:45:14.524Z,6.02
2022-09-26T02:46:19.021Z,6.02
2022-09-26T02:47:21.020Z,6.00
2022-09-26T02:48:37.774Z,5.99
2022-09-26T02:49:45.447Z,6.00
2022-09-26T02:50:54.874Z,6.00
2022-09-26T02:52:02.450Z,5.99
2022-09-26T02:53:10.318Z,6.02
2022-09-26T02:54:49.766Z,6.02
2022-09-26T02:56:13.454Z,6.03
2022-09-26T02:57:26.754Z,6.03
2022-09-26T02:58:37.632Z,6.02
2022-09-26T02:59:42.422Z,6.02
2022-09-26T03:00:48.826Z,6.00
2022-09-26T03:01:54.142Z,5.99
2022-09-26T03:02:56.989Z,5.99
2022-09-26T03:04:01.550Z,5.96
2022-09-26T03:05:06.752Z,5.94
2022-09-26T03:06:11.927Z,5.92
2022-09-26T03:07:30.224Z,5.92
2022-09-26T03:08:36.481Z,5.90
2022-09-26T03:09:38.835Z,5.89
2022-09-26T03:10:43.330Z,5.87
2022-09-26T03:11:45.154Z,5.86
2022-09-26T03:12:49.554Z,5.86
2022-09-26T03:13:52.401Z,5.85
2022-09-26T03:14:58.817Z,5.83
2022-09-26T03:16:01.043Z,5.83
2022-09-26T03:17:05.700Z,5.82
2022-09-26T03:18:08.855Z,5.80
2022-09-26T03:19:32.200Z,5.79
2022-09-26T03:20:34.175Z,5.78
2022-09-26T03:21:39.212Z,5.78
2022-09-26T03:22:42.374Z,5.78
2022-09-26T03:23:47.663Z,5.79
2022-09-26T03:24:49.493Z,5.79
2022-09-26T03:26:01.282Z,5.79
2022-09-26T03:27:05.237Z,5.79
2022-09-26T03:28:12.366Z,5.80
2022-09-26T03:29:15.173Z,5.78
2022-09-26T03:30:19.962Z,5.78
2022-09-26T03:31:45.286Z,5.77
2022-09-26T03:32:47.484Z,5.77
2022-09-26T03:33:51.983Z,5.77
2022-09-26T03:34:54.001Z,5.77
2022-09-26T03:35:59.868Z,5.75
2022-09-26T03:37:04.495Z,5.75
2022-09-26T03:38:11.270Z,5.74
2022-09-26T03:39:21.508Z,5.73
2022-09-26T03:40:37.535Z,5.73
2022-09-26T03:42:07.678Z,5.71
2022-09-26T03:43:10.047Z,5.69
2022-09-26T03:44:15.870Z,5.68
2022-09-26T03:45:38.150Z,5.67
2022-09-26T03:46:52.185Z,5.66
2022-09-26T03:47:57.308Z,5.67
2022-09-26T03:49:02.599Z,5.68
2022-09-26T03:50:05.786Z,5.72
2022-09-26T03:51:11.318Z,5.76
2022-09-26T03:52:13.338Z,5.83
2022-09-26T03:53:18.938Z,5.88
2022-09-26T03:54:20.866Z,5.94
2022-09-26T03:55:26.431Z,6.00
2022-09-26T03:56:28.355Z,6.07
2022-09-26T03:57:32.765Z,6.12
2022-09-26T03:58:47.184Z,6.20
2022-09-26T03:59:51.772Z,6.26
2022-09-26T04:00:54.306Z,6.32
2022-09-26T04:01:58.846Z,6.38
2022-09-26T04:03:03.063Z,6.41
2022-09-26T04:04:16.882Z,6.48
2022-09-26T04:05:19.851Z,6.51
2022-09-26T04:06:24.262Z,6.53
2022-09-26T04:07:26.409Z,6.54
2022-09-26T04:08:31.376Z,6.53
2022-09-26T04:09:33.481Z,6.52
2022-09-26T04:10:38.323Z,6.48
2022-09-26T04:11:41.374Z,6.45
2022-09-26T04:12:46.087Z,6.43
2022-09-26T04:13:52.540Z,6.38
2022-09-26T04:14:59.507Z,6.35
2022-09-26T04:16:01.676Z,6.31
2022-09-26T04:17:07.341Z,6.27
2022-09-26T04:18:13.531Z,6.25
2022-09-26T04:19:18.001Z,6.22
2022-09-26T04:20:20.499Z,6.20
2022-09-26T04:21:27.162Z,6.18
2022-09-26T04:22:29.301Z,6.16
2022-09-26T04:23:35.416Z,6.16
2022-09-26T04:24:37.281Z,6.17
2022-09-26T04:25:41.796Z,6.19
2022-09-26T04:26:44.226Z,6.19
2022-09-26T04:27:48.625Z,6.21
2022-09-26T04:28:52.288Z,6.25
2022-09-26T04:29:57.238Z,6.26
2022-09-26T04:31:15.348Z,6.30
2022-09-26T04:32:27.146Z,6.37
2022-09-26T04:34:07.111Z,6.43
2022-09-26T04:35:09.607Z,6.49
2022-09-26T04:36:14.960Z,6.54
2022-09-26T04:37:17.179Z,6.59
2022-09-26T04:38:21.576Z,6.63
2022-09-26T04:39:23.488Z,6.68
2022-09-26T04:40:28.361Z,6.73
2022-09-26T04:41:42.814Z,6.78
2022-09-26T04:42:45.901Z,6.80
2022-09-26T04:43:50.813Z,6.84
2022-09-26T04:44:53.196Z,6.90
2022-09-26T04:45:57.732Z,6.92
2022-09-26T04:46:59.721Z,6.96
2022-09-26T04:48:19.811Z,7.00
2022-09-26T04:49:32.797Z,7.04
2022-09-26T04:50:37.251Z,7.08
2022-09-26T04:51:40.810Z,7.10
2022-09-26T04:52:45.882Z,7.13
2022-09-26T04:53:47.776Z,7.16
2022-09-26T04:54:58.405Z,7.18
2022-09-26T04:56:00.464Z,7.20
2022-09-26T04:57:07.270Z,7.24
2022-09-26T04:58:10.355Z,7.27
2022-09-26T04:59:15.154Z,7.28
2022-09-26T05:00:25.266Z,7.33
2022-09-26T05:01:31.472Z,7.36
2022-09-26T05:02:41.623Z,7.40
2022-09-26T05:03:46.130Z,7.45
2022-09-26T05:04:51.281Z,7.48
2022-09-26T05:05:54.442Z,7.52
2022-09-26T05:06:59.434Z,7.58
2022-09-26T05:08:07.928Z,7.62
2022-09-26T05:09:13.146Z,7.67
2022-09-26T05:10:28.557Z,7.72
2022-09-26T05:11:37.936Z,7.76
2022-09-26T05:12:41.817Z,7.78
2022-09-26T05:13:50.077Z,7.82
2022-09-26T05:14:56.878Z,7.83
2022-09-26T05:16:02.334Z,7.86
2022-09-26T05:17:04.661Z,7.87
2022-09-26T05:18:11.538Z,7.88
2022-09-26T05:19:13.542Z,7.89
2022-09-26T05:20:31.502Z,7.90
2022-09-26T05:21:40.205Z,7.89
2022-09-26T05:22:42.506Z,7.90
2022-09-26T05:23:59.410Z,7.87
2022-09-26T05:25:17.760Z,7.90
2022-09-26T05:26:25.245Z,7.90
2022-09-26T05:27:27.086Z,7.93
2022-09-26T05:28:31.935Z,7.97
2022-09-26T05:29:35.200Z,8.02
2022-09-26T05:30:43.482Z,8.03
2022-09-26T05:31:46.634Z,8.09
2022-09-26T05:32:51.544Z,8.13
2022-09-26T05:33:57.230Z,8.18
2022-09-26T05:35:05.371Z,8.23
2022-09-26T05:36:09.139Z,8.30
2022-09-26T05:37:13.597Z,8.37
2022-09-26T05:38:16.307Z,8.43
2022-09-26T05:39:33.148Z,8.49
2022-09-26T05:40:50.092Z,8.56
2022-09-26T05:41:55.829Z,8.62
2022-09-26T05:43:03.474Z,8.70
2022-09-26T05:44:09.986Z,8.75
2022-09-26T05:45:15.742Z,8.82
2022-09-26T05:46:21.663Z,8.90
2022-09-26T05:47:26.522Z,8.97
2022-09-26T05:48:32.331Z,9.03
2022-09-26T05:49:36.099Z,9.11
2022-09-26T05:50:43.594Z,9.19
2022-09-26T05:51:48.210Z,9.27
2022-09-26T05:52:56.847Z,9.32
2022-09-26T05:54:02.082Z,9.39
2022-09-26T05:55:07.495Z,9.46
2022-09-26T05:56:30.405Z,9.52
2022-09-26T05:57:51.075Z,9.61
2022-09-26T05:58:57.035Z,9.68
2022-09-26T06:00:30.863Z,9.77
2022-09-26T06:01:33.350Z,9.81
2022-09-26T06:02:49.554Z,9.87
2022-09-26T06:03:58.837Z,9.93
2022-09-26T06:05:06.382Z,9.98
2022-09-26T06:06:29.873Z,10.06
2022-09-26T06:07:42.318Z,10.12
2022-09-26T06:08:51.518Z,10.20
2022-09-26T06:10:13.414Z,10.26
2022-09-26T06:11:27.514Z,10.32
2022-09-26T06:12:29.360Z,10.38
2022-09-26T06:13:33.874Z,10.43
2022-09-26T06:14:35.747Z,10.49
2022-09-26T06:15:42.646Z,10.56
2022-09-26T06:16:47.165Z,10.61
2022-09-26T06:17:49.306Z,10.67
2022-09-26T06:18:55.863Z,10.73
2022-09-26T06:19:58.442Z,10.81
2022-09-26T06:21:06.332Z,10.87
2022-09-26T06:22:08.448Z,10.94
2022-09-26T06:23:12.830Z,11.00
2022-09-26T06:24:15.908Z,11.06
2022-09-26T06:25:20.738Z,11.13
2022-09-26T06:26:26.048Z,11.22
2022-09-26T06:27:28.544Z,11.27
2022-09-26T06:28:33.144Z,11.34
2022-09-26T06:29:35.088Z,11.39
2022-09-26T06:30:42.677Z,11.46
2022-09-26T06:31:56.453Z,11.52
2022-09-26T06:32:58.414Z,11.59
2022-09-26T06:34:16.085Z,11.66
2022-09-26T06:35:24.169Z,11.72
2022-09-26T06:36:47.240Z,11.80
2022-09-26T06:37:49.401Z,11.86
2022-09-26T06:38:53.916Z,11.88
2022-09-26T06:39:59.427Z,11.96
2022-09-26T06:41:04.414Z,12.03
2022-09-26T06:42:09.143Z,12.11
2022-09-26T06:43:24.592Z,12.17
2022-09-26T06:44:46.906Z,12.23
2022-09-26T06:46:01.059Z,12.30
2022-09-26T06:47:34.412Z,12.37
2022-09-26T06:49:14.269Z,12.46
2022-09-26T06:50:18.984Z,12.52
2022-09-26T06:51:29.357Z,12.58
2022-09-26T06:52:34.098Z,12.63
2022-09-26T06:53:39.766Z,12.68
2022-09-26T06:54:41.673Z,12.73
2022-09-26T06:55:46.075Z,12.77
2022-09-26T06:56:47.963Z,12.80
2022-09-26T06:57:54.193Z,12.84
2022-09-26T06:58:59.157Z,12.90
2022-09-26T07:00:13.885Z,12.95
2022-09-26T07:01:37.913Z,13.01
2022-09-26T07:03:08.439Z,13.09
2022-09-26T07:04:21.545Z,13.15
2022-09-26T07:05:53.616Z,13.22
2022-09-26T07:06:58.166Z,13.22
2022-09-26T07:08:02.927Z,13.35
2022-09-26T07:09:09.809Z,13.41
2022-09-26T07:10:24.129Z,13.47
2022-09-26T07:12:02.786Z,13.53
2022-09-26T07:13:06.256Z,13.59
2022-09-26T07:14:08.159Z,13.64
2022-09-26T07:15:14.733Z,13.69
2022-09-26T07:16:16.729Z,13.74
2022-09-26T07:17:41.450Z,13.81
2022-09-26T07:19:18.703Z,13.89
2022-09-26T07:20:40.099Z,13.96
2022-09-26T07:21:50.155Z,14.01
2022-09-26T07:23:08.698Z,14.09
2022-09-26T07:24:14.415Z,14.14
2022-09-26T07:25:17.251Z,14.18
2022-09-26T07:26:21.999Z,14.22
2022-09-26T07:27:23.819Z,14.27
2022-09-26T07:28:29.353Z,14.31
2022-09-26T07:29:32.433Z,14.35
2022-09-26T07:30:36.944Z,14.41
2022-09-26T07:31:45.554Z,14.46
2022-09-26T07:33:12.394Z,14.55
2022-09-26T07:34:25.034Z,14.60
2022-09-26T07:35:29.585Z,14.65
2022-09-26T07:36:31.752Z,14.69
2022-09-26T07:37:36.925Z,14.75
2022-09-26T07:38:38.808Z,14.81
2022-09-26T07:39:43.634Z,14.86
2022-09-26T07:40:45.594Z,14.90
2022-09-26T07:41:50.890Z,14.97
2022-09-26T07:43:15.427Z,15.00
2022-09-26T07:45:54.251Z,15.16
2022-09-26T07:47:11.216Z,15.22
2022-09-26T07:48:28.154Z,15.26
2022-09-26T07:50:04.083Z,15.31
2022-09-26T07:51:34.191Z,15.36
2022-09-26T07:52:40.210Z,15.41
2022-09-26T07:53:59.729Z,15.46
2022-09-26T07:55:27.945Z,15.52
2022-09-26T07:56:47.899Z,15.58
2022-09-26T07:57:59.311Z,15.61
2022-09-26T07:59:19.610Z,15.66
2022-09-26T08:00:47.311Z,15.71
2022-09-26T08:02:07.058Z,15.75
2022-09-26T08:03:14.082Z,15.79
2022-09-26T08:04:20.537Z,15.84
2022-09-26T08:05:26.352Z,15.89
2022-09-26T08:06:28.272Z,15.94
2022-09-26T08:07:32.950Z,15.98
2022-09-26T08:08:46.092Z,15.98
2022-09-26T08:10:09.831Z,16.04
2022-09-26T08:11:33.712Z,16.08
2022-09-26T08:12:56.845Z,16.09
2022-09-26T08:14:15.431Z,16.11
2022-09-26T08:15:43.154Z,16.15
2022-09-26T08:16:57.316Z,16.10
2022-09-26T08:17:59.206Z,16.16
2022-09-26T08:19:03.849Z,16.17
2022-09-26T08:20:05.930Z,16.21
2022-09-26T08:21:10.417Z,16.25
2022-09-26T08:22:15.695Z,16.29
2022-09-26T08:23:17.952Z,16.32
2022-09-26T08:24:29.370Z,16.37
2022-09-26T08:25:31.475Z,16.37
2022-09-26T08:26:45.806Z,16.41
2022-09-26T08:28:00.655Z,16.46
2022-09-26T08:29:03.584Z,16.50
2022-09-26T08:30:08.493Z,16.56
2022-09-26T08:31:11.571Z,16.60
2022-09-26T08:32:16.448Z,16.65
2022-09-26T08:33:19.135Z,16.71
2022-09-26T08:34:25.718Z,16.77
2022-09-26T08:35:53.181Z,16.82
2022-09-26T08:37:17.920Z,16.89
2022-09-26T08:38:41.073Z,16.95
2022-09-26T08:40:04.219Z,17.01
2022-09-26T08:42:07.235Z,17.08
2022-09-26T08:43:44.901Z,17.13
2022-09-26T08:45:47.853Z,17.20
2022-09-26T08:47:17.906Z,17.27
2022-09-26T08:48:43.417Z,17.35
2022-09-26T08:49:56.240Z,17.37
2022-09-26T08:50:59.519Z,17.42
2022-09-26T08:52:04.846Z,17.46
2022-09-26T08:53:11.551Z,17.45
2022-09-26T08:54:22.953Z,17.46
2022-09-26T08:55:27.262Z,17.51
2022-09-26T08:56:36.243Z,17.54
2022-09-26T08:57:41.733Z,17.58
2022-09-26T08:58:48.304Z,17.59
2022-09-26T08:59:54.546Z,17.67
2022-09-26T09:00:58.472Z,17.69
2022-09-26T09:02:05.167Z,17.74
2022-09-26T09:03:31.861Z,17.80
2022-09-26T09:04:42.635Z,17.86
2022-09-26T09:05:48.786Z,17.91
2022-09-26T09:06:55.891Z,18.00
2022-09-26T09:08:01.954Z,18.08
2022-09-26T09:09:08.151Z,18.14
2022-09-26T09:10:48.386Z,18.21
2022-09-26T09:12:05.444Z,18.29
2022-09-26T09:13:07.282Z,18.31
2022-09-26T09:14:20.319Z,18.36
2022-09-26T09:16:09.617Z,18.42
2022-09-26T09:17:50.641Z,18.47
2022-09-26T09:19:33.506Z,18.53
2022-09-26T09:21:04.701Z,18.57
2022-09-26T09:22:38.955Z,18.61
2022-09-26T09:23:53.478Z,18.64
2022-09-26T09:25:04.970Z,18.68
2022-09-26T09:28:15.640Z,18.65
2022-09-26T09:29:26.402Z,18.65
2022-09-26T09:30:53.558Z,18.60
2022-09-26T09:32:35.206Z,18.59
2022-09-26T09:34:07.258Z,18.56
2022-09-26T09:35:39.629Z,18.59
2022-09-26T09:37:23.436Z,18.61
2022-09-26T09:38:56.730Z,18.67
2022-09-26T09:40:11.646Z,18.71
2022-09-26T09:41:38.297Z,18.77
2022-09-26T09:42:41.263Z,18.83
2022-09-26T09:43:46.086Z,18.87
2022-09-26T09:44:49.747Z,18.90
2022-09-26T09:45:54.395Z,18.93
2022-09-26T09:46:56.303Z,18.98
2022-09-26T09:48:01.157Z,18.99
2022-09-26T09:49:23.293Z,19.02
2022-09-26T09:50:47.902Z,19.06
2022-09-26T09:52:04.837Z,19.02
2022-09-26T09:53:25.581Z,19.01
2022-09-26T09:54:41.831Z,19.01
2022-09-26T09:55:55.503Z,19.02
2022-09-26T09:57:09.042Z,19.03
2022-09-26T09:58:32.678Z,19.10
2022-09-26T09:59:42.036Z,19.06
2022-09-26T10:01:10.766Z,19.08
2022-09-26T10:02:13.015Z,19.04
2022-09-26T10:03:31.064Z,19.02
2022-09-26T10:04:39.329Z,19.03
2022-09-26T10:05:45.320Z,19.03
2022-09-26T10:06:54.298Z,19.08
2022-09-26T10:08:00.970Z,19.10
2022-09-26T10:09:38.744Z,19.13
2022-09-26T10:11:28.305Z,19.12
2022-09-26T10:12:35.137Z,19.12
2022-09-26T10:14:01.313Z,19.12
2022-09-26T10:15:27.330Z,19.06
2022-09-26T10:17:00.166Z,19.02
2022-09-26T10:18:27.467Z,18.98
2022-09-26T10:19:45.263Z,18.97
2022-09-26T10:20:53.204Z,18.97
2022-09-26T10:21:58.594Z,18.98
2022-09-26T10:23:01.961Z,19.03
2022-09-26T10:24:06.835Z,19.08
2022-09-26T10:25:31.579Z,19.16
2022-09-26T10:26:35.195Z,19.22
2022-09-26T10:27:45.138Z,19.28
2022-09-26T10:28:48.514Z,19.36
2022-09-26T10:30:00.186Z,19.44
2022-09-26T10:31:03.767Z,19.52
2022-09-26T10:32:14.271Z,19.58
2022-09-26T10:33:27.709Z,19.64
2022-09-26T10:34:48.297Z,19.75
2022-09-26T10:35:51.595Z,19.82
2022-09-26T10:36:57.381Z,19.91
2022-09-26T10:38:06.205Z,19.92
2022-09-26T10:39:33.237Z,20.01
2022-09-26T10:40:48.666Z,20.07
2022-09-26T10:41:56.338Z,20.11
2022-09-26T10:43:09.002Z,20.15
2022-09-26T10:44:22.964Z,20.18
2022-09-26T10:45:47.429Z,20.20
2022-09-26T10:47:11.249Z,20.19
2022-09-26T10:48:57.169Z,20.21
2022-09-26T10:50:33.635Z,20.22
2022-09-26T10:52:08.373Z,20.25
2022-09-26T10:53:13.143Z,20.31
2022-09-26T10:54:19.071Z,20.39
2022-09-26T10:55:26.910Z,20.48
2022-09-26T10:56:31.923Z,20.58
2022-09-26T10:57:36.002Z,20.63
2022-09-26T10:58:42.518Z,20.67
2022-09-26T10:59:47.214Z,20.73
2022-09-26T11:00:53.010Z,20.77
2022-09-26T11:01:59.737Z,20.78
2022-09-26T11:03:04.884Z,20.82
2022-09-26T11:04:41.981Z,20.85
2022-09-26T11:06:23.835Z,20.92
2022-09-26T11:07:30.407Z,20.96
2022-09-26T11:08:52.187Z,20.97
2022-09-26T11:10:20.709Z,20.98
2022-09-26T11:11:36.751Z,21.02
2022-09-26T11:12:40.102Z,21.05
2022-09-26T11:13:50.116Z,21.03
2022-09-26T11:14:54.167Z,21.06
2022-09-26T11:16:04.622Z,21.07
2022-09-26T11:17:09.481Z,21.06
2022-09-26T11:18:20.174Z,21.06
2022-09-26T11:19:27.417Z,21.07
2022-09-26T11:20:39.529Z,21.04
2022-09-26T11:21:43.972Z,21.05
2022-09-26T11:22:51.278Z,21.05
2022-09-26T11:23:58.604Z,21.02
2022-09-26T11:25:06.334Z,21.01
2022-09-26T11:26:11.259Z,21.01
2022-09-26T11:27:19.559Z,20.99
2022-09-26T11:28:23.907Z,21.01
2022-09-26T11:29:49.754Z,21.00
2022-09-26T11:30:56.689Z,21.00
2022-09-26T11:32:03.484Z,21.01
2022-09-26T11:33:28.559Z,21.01
2022-09-26T11:35:04.653Z,20.99
2022-09-26T11:36:22.905Z,20.98
2022-09-26T11:37:50.845Z,20.98
2022-09-26T11:39:04.832Z,20.96
2022-09-26T11:40:20.736Z,20.94
2022-09-26T11:41:37.480Z,20.93
2022-09-26T11:43:01.822Z,20.92
2022-09-26T11:44:24.711Z,20.92
2022-09-26T11:46:15.307Z,20.97
2022-09-26T11:48:06.495Z,20.96
2022-09-26T11:49:26.455Z,20.97
2022-09-26T11:50:54.615Z,20.97
2022-09-26T11:52:07.242Z,20.97
2022-09-26T11:53:22.016Z,20.97
2022-09-26T11:54:32.532Z,20.96
2022-09-26T11:55:40.090Z,20.93
2022-09-26T11:57:03.289Z,20.92
2022-09-26T11:58:26.051Z,20.91
2022-09-26T11:59:40.979Z,20.92
2022-09-26T12:01:05.695Z,20.91
2022-09-26T12:02:15.869Z,20.95
2022-09-26T12:03:20.497Z,20.98
2022-09-26T12:04:28.343Z,21.01
2022-09-26T12:05:38.566Z,21.04
2022-09-26T12:06:51.261Z,21.07
2022-09-26T12:07:56.298Z,21.12
2022-09-26T12:09:19.401Z,21.17
2022-09-26T12:10:33.504Z,21.23
2022-09-26T12:11:42.566Z,21.27
2022-09-26T12:13:04.781Z,21.30
2022-09-26T12:14:29.386Z,21.36
2022-09-26T12:15:39.538Z,21.41
2022-09-26T12:16:41.438Z,21.44
2022-09-26T12:17:59.555Z,21.44
2022-09-26T12:19:15.557Z,21.48
2022-09-26T12:20:18.227Z,21.55
2022-09-26T12:21:22.571Z,21.58
2022-09-26T12:22:36.722Z,21.60
2022-09-26T12:23:56.818Z,21.62
2022-09-26T12:25:27.211Z,21.62
2022-09-26T12:26:42.281Z,21.62
2022-09-26T12:27:53.162Z,21.63
2022-09-26T12:28:57.509Z,21.55
2022-09-26T12:30:15.134Z,21.64
2022-09-26T12:31:28.936Z,21.63
2022-09-26T12:33:08.947Z,21.61
2022-09-26T12:34:10.750Z,21.63
2022-09-26T12:35:37.114Z,21.65
2022-09-26T12:36:40.489Z,21.69
2022-09-26T12:37:49.254Z,21.69
2022-09-26T12:38:56.664Z,21.74
2022-09-26T12:40:10.378Z,21.78
2022-09-26T12:41:25.282Z,21.83
2022-09-26T12:42:34.304Z,21.88
2022-09-26T12:43:57.253Z,21.95
2022-09-26T12:45:20.403Z,21.99
2022-09-26T12:46:43.503Z,22.00
2022-09-26T12:47:52.002Z,22.00
2022-09-26T12:49:05.398Z,22.00
2022-09-26T12:50:10.743Z,22.00
2022-09-26T12:51:28.593Z,22.00
2022-09-26T12:52:52.149Z,22.03
2022-09-26T12:53:56.559Z,22.04
2022-09-26T12:55:01.352Z,22.07
2022-09-26T12:56:12.602Z,22.10
2022-09-26T12:57:26.763Z,22.10
2022-09-26T12:58:43.565Z,22.11
2022-09-26T12:59:51.821Z,22.14
2022-09-26T13:01:11.969Z,22.14
2022-09-26T13:02:22.589Z,22.18
2022-09-26T13:03:32.946Z,22.19
2022-09-26T13:04:53.016Z,22.26
2022-09-26T13:06:08.454Z,22.35
2022-09-26T13:07:32.129Z,22.38
2022-09-26T13:08:42.736Z,22.43
2022-09-26T13:09:49.630Z,22.45
2022-09-26T13:10:57.129Z,22.46
2022-09-26T13:11:59.627Z,22.52
2022-09-26T13:13:07.206Z,22.56
2022-09-26T13:14:15.142Z,22.65
2022-09-26T13:15:35.722Z,22.71
2022-09-26T13:16:41.158Z,22.83
2022-09-26T13:17:47.133Z,22.93
2022-09-26T13:18:49.748Z,23.05
2022-09-26T13:20:04.026Z,23.11
2022-09-26T13:21:14.063Z,23.16
2022-09-26T13:22:32.631Z,23.17
2022-09-26T13:23:42.018Z,23.16
2022-09-26T13:24:48.956Z,23.09
2022-09-26T13:25:52.791Z,23.04
2022-09-26T13:27:00.538Z,22.96
2022-09-26T13:28:05.288Z,22.86
2022-09-26T13:29:17.579Z,22.79
2022-09-26T13:30:28.977Z,22.69
2022-09-26T13:31:38.173Z,22.62
2022-09-26T13:32:55.054Z,22.55
2022-09-26T13:34:04.123Z,22.50
2022-09-26T13:35:10.748Z,22.44
2022-09-26T13:36:12.558Z,22.41
2022-09-26T13:37:42.879Z,22.37
2022-09-26T13:39:08.436Z,22.32
2022-09-26T13:40:33.168Z,22.27
2022-09-26T13:41:53.416Z,22.24
2022-09-26T13:43:03.098Z,22.21
2022-09-26T13:44:11.406Z,22.16
2022-09-26T13:45:24.575Z,22.13
2022-09-26T13:46:40.021Z,22.06
2022-09-26T13:47:45.706Z,22.02
2022-09-26T13:48:51.905Z,21.96
2022-09-26T13:50:01.297Z,21.93
2022-09-26T13:51:11.330Z,21.92
2022-09-26T13:52:15.691Z,21.95
2022-09-26T13:53:38.058Z,21.96
2022-09-26T13:55:03.305Z,22.01
2022-09-26T13:56:25.175Z,22.08
2022-09-26T13:57:38.968Z,22.18
2022-09-26T13:58:40.897Z,22.26
2022-09-26T13:59:55.077Z,22.33
2022-09-26T14:01:00.761Z,22.38
2022-09-26T14:02:23.546Z,22.42
2022-09-26T14:03:28.358Z,22.45
2022-09-26T14:04:34.075Z,22.45
2022-09-26T14:05:44.321Z,22.44
2022-09-26T14:07:28.269Z,22.44
2022-09-26T14:08:58.171Z,22.33
2022-09-26T14:10:05.161Z,22.17
2022-09-26T14:11:12.357Z,22.14
2022-09-26T14:12:20.918Z,22.06
2022-09-26T14:13:39.110Z,21.99
2022-09-26T14:14:51.206Z,21.92
2022-09-26T14:15:59.714Z,21.86
2022-09-26T14:17:04.391Z,21.79
2022-09-26T14:18:27.435Z,21.72
2022-09-26T14:19:31.255Z,21.58
2022-09-26T14:20:38.470Z,21.46
2022-09-26T14:21:46.482Z,21.36
2022-09-26T14:22:52.131Z,21.26
2022-09-26T14:24:16.493Z,21.16
2022-09-26T14:25:39.398Z,21.09
2022-09-26T14:26:44.546Z,21.01
2022-09-26T14:27:48.991Z,20.94
2022-09-26T14:28:52.051Z,20.89
2022-09-26T14:30:04.894Z,20.85
2022-09-26T14:31:15.778Z,20.83
2022-09-26T14:32:20.896Z,20.81
2022-09-26T14:33:23.227Z,20.79
2022-09-26T14:34:28.755Z,20.70
2022-09-26T14:35:34.128Z,20.73
2022-09-26T14:36:36.033Z,20.67
2022-09-26T14:37:44.728Z,20.60
2022-09-26T14:38:47.572Z,20.51
2022-09-26T14:39:54.665Z,20.44
2022-09-26T14:40:57.076Z,20.35
2022-09-26T14:42:01.683Z,20.25
2022-09-26T14:43:05.773Z,20.17
2022-09-26T14:44:19.073Z,20.08
2022-09-26T14:45:22.104Z,20.02
2022-09-26T14:46:27.717Z,19.96
2022-09-26T14:47:31.142Z,19.91
2022-09-26T14:48:40.104Z,19.88
2022-09-26T14:49:41.927Z,19.82
2022-09-26T14:51:00.921Z,19.78
2022-09-26T14:52:10.424Z,19.75
2022-09-26T14:53:30.811Z,19.71
2022-09-26T14:54:40.005Z,19.66
2022-09-26T14:56:06.183Z,19.61
2022-09-26T14:57:08.641Z,19.49
2022-09-26T14:58:20.078Z,19.37
2022-09-26T14:59:22.374Z,19.27
2022-09-26T15:00:39.430Z,19.15
2022-09-26T15:01:44.751Z,19.00
2022-09-26T15:02:50.479Z,18.89
2022-09-26T15:04:03.687Z,18.76
2022-09-26T15:05:05.647Z,18.61
2022-09-26T15:06:12.912Z,18.51
2022-09-26T15:07:16.239Z,18.42
2022-09-26T15:08:28.103Z,18.31
2022-09-26T15:09:38.966Z,18.18
2022-09-26T15:10:44.201Z,18.06
2022-09-26T15:11:48.218Z,17.97
2022-09-26T15:13:07.308Z,17.87
2022-09-26T15:14:14.991Z,17.72
2022-09-26T15:15:26.197Z,17.56
2022-09-26T15:16:32.465Z,17.40
2022-09-26T15:17:35.445Z,17.30
2022-09-26T15:18:43.186Z,17.20
2022-09-26T15:19:47.505Z,17.11
2022-09-26T15:20:53.307Z,17.01
2022-09-26T15:21:58.445Z,16.95
2022-09-26T15:23:02.910Z,16.85
2022-09-26T15:24:09.188Z,16.77
2022-09-26T15:25:21.895Z,16.72
2022-09-26T15:26:28.041Z,16.66